createdAt,value
2022-09-21T00:02:05.227Z,50.72
2022-09-21T00:07:08.633Z,50.90
2022-09-21T00:12:12.501Z,50.51
2022-09-21T00:17:17.257Z,50.19
2022-09-21T00:22:20.659Z,50.21
2022-09-21T00:27:29.910Z,50.44
2022-09-21T00:32:36.227Z,50.06
2022-09-21T00:37:39.557Z,50.77
2022-09-21T00:42:42.942Z,51.37
2022-09-21T00:47:50.045Z,50.96
2022-09-21T00:52:56.952Z,50.87
2022-09-21T00:58:02.796Z,51.06
2022-09-21T01:03:08.527Z,50.17
2022-09-21T01:08:13.454Z,50.50
2022-09-21T01:13:25.263Z,50.58
2022-09-21T01:18:34.628Z,50.56
2022-09-21T01:24:09.325Z,50.31
2022-09-21T01:29:21.418Z,50.48
2022-09-21T01:34:29.143Z,50.24
2022-09-21T01:39:34.849Z,50.23
2022-09-21T01:44:40.510Z,49.83
2022-09-21T01:49:46.432Z,50.11
2022-09-21T01:54:53.785Z,49.89
2022-09-21T02:00:00.377Z,50.07
2022-09-21T02:05:05.360Z,50.33
2022-09-21T02:10:09.836Z,50.13
2022-09-21T02:15:14.786Z,49.98
2022-09-21T02:20:21.188Z,50.01
2022-09-21T02:25:36.060Z,50.09
2022-09-21T02:30:42.270Z,49.43
2022-09-21T02:35:52.044Z,50.16
2022-09-21T02:40:59.009Z,50.25
2022-09-21T02:46:06.450Z,49.94
2022-09-21T02:51:12.768Z,50.16
2022-09-21T02:56:17.077Z,49.97
2022-09-21T03:01:22.135Z,49.73
2022-09-21T03:06:25.554Z,49.67
2022-09-21T03:11:29.112Z,49.93
2022-09-21T03:16:33.852Z,50.52
2022-09-21T03:21:39.203Z,50.39
2022-09-21T03:26:46.099Z,50.05
2022-09-21T03:31:52.405Z,50.75
2022-09-21T03:36:55.795Z,50.54
2022-09-21T03:41:59.766Z,50.67
2022-09-21T03:47:06.640Z,50.92
2022-09-21T03:52:09.997Z,51.14
2022-09-21T03:57:13.345Z,51.18
2022-09-21T04:02:18.185Z,51.77
2022-09-21T04:07:21.694Z,51.12
2022-09-21T04:12:25.042Z,51.11
2022-09-21T04:17:31.443Z,50.96
2022-09-21T04:22:36.334Z,50.79
2022-09-21T04:27:42.277Z,51.62
2022-09-21T04:32:47.454Z,51.94
2022-09-21T04:37:50.864Z,50.93
2022-09-21T04:42:54.305Z,51.13
2022-09-21T04:47:59.030Z,50.95
2022-09-21T04:53:02.365Z,50.83
2022-09-21T04:58:05.742Z,50.87
2022-09-21T05:03:10.600Z,51.08
2022-09-21T05:08:13.963Z,51.69
2022-09-21T05:13:19.856Z,50.67
2022-09-21T05:18:24.878Z,51.60
2022-09-21T05:23:29.493Z,51.23
2022-09-21T05:28:37.726Z,51.07
2022-09-21T05:33:49.585Z,51.21
2022-09-21T05:38:53.553Z,51.54
2022-09-21T05:43:57.343Z,50.90
2022-09-21T05:49:06.134Z,52.14
2022-09-21T05:54:12.532Z,51.83
2022-09-21T05:59:36.783Z,52.19
2022-09-21T06:04:42.205Z,52.11
2022-09-21T06:09:45.675Z,53.07
2022-09-21T06:14:49.232Z,53.82
2022-09-21T06:19:54.078Z,53.88
2022-09-21T06:24:57.459Z,52.85
2022-09-21T06:30:00.839Z,52.56
2022-09-21T06:35:06.330Z,52.22
2022-09-21T06:40:10.434Z,52.73
2022-09-21T06:45:13.898Z,53.07
2022-09-21T06:50:18.734Z,52.89
2022-09-21T06:55:22.229Z,52.86
2022-09-21T07:00:25.613Z,53.27
2022-09-21T07:05:30.429Z,53.48
2022-09-21T07:10:33.800Z,52.86
2022-09-21T07:15:37.324Z,52.86
2022-09-21T07:20:42.468Z,52.53
2022-09-21T07:25:48.806Z,52.44
2022-09-21T07:30:52.183Z,52.74
2022-09-21T07:35:57.175Z,51.48
2022-09-21T07:41:03.019Z,51.18
2022-09-21T07:46:06.829Z,50.73
2022-09-21T07:51:14.001Z,50.70
2022-09-21T07:56:20.090Z,50.37
2022-09-21T08:01:24.243Z,50.06
2022-09-21T08:06:30.922Z,49.54
2022-09-21T08:11:34.489Z,49.00
2022-09-21T08:16:39.374Z,49.40
2022-09-21T08:21:44.495Z,49.17
2022-09-21T08:26:48.278Z,50.29
2022-09-21T08:31:52.267Z,48.79
2022-09-21T08:36:57.012Z,48.78
2022-09-21T08:42:07.173Z,47.33
2022-09-21T08:47:14.146Z,46.67
2022-09-21T08:52:20.954Z,47.46
2022-09-21T08:57:30.031Z,44.41
2022-09-21T09:02:44.209Z,44.17
2022-09-21T09:07:59.469Z,43.65
2022-09-21T09:13:14.063Z,42.01
2022-09-21T09:18:24.357Z,42.08
2022-09-21T09:23:32.286Z,43.79
2022-09-21T09:28:37.249Z,41.79
2022-09-21T09:33:47.448Z,41.04
2022-09-21T09:38:57.288Z,39.78
2022-09-21T09:44:11.843Z,40.12
2022-09-21T09:49:24.116Z,39.27
2022-09-21T09:54:31.147Z,38.67
2022-09-21T09:59:37.209Z,38.42
2022-09-21T10:04:55.653Z,37.61
2022-09-21T10:10:00.423Z,39.07
2022-09-21T10:15:05.066Z,37.51
2022-09-21T10:20:16.494Z,34.63
2022-09-21T10:25:21.694Z,35.54
2022-09-21T10:30:35.934Z,34.42
2022-09-21T10:35:50.170Z,33.76
2022-09-21T10:40:55.244Z,33.67
2022-09-21T10:45:58.887Z,32.76
2022-09-21T10:51:02.421Z,32.21
2022-09-21T10:56:17.049Z,32.63
2022-09-21T11:01:23.474Z,30.92
2022-09-21T11:06:30.564Z,30.58
2022-09-21T11:11:42.440Z,28.32
2022-09-21T11:16:49.190Z,30.01
2022-09-21T11:21:56.310Z,30.52
2022-09-21T11:27:05.021Z,31.01
2022-09-21T11:32:20.215Z,28.21
2022-09-21T11:37:37.294Z,28.47
2022-09-21T11:42:51.698Z,28.98
2022-09-21T11:48:07.544Z,26.70
2022-09-21T11:53:20.981Z,30.06
2022-09-21T11:58:31.442Z,31.18
2022-09-21T12:03:45.986Z,28.61
2022-09-21T12:09:17.808Z,29.41
2022-09-21T12:14:28.546Z,26.67
2022-09-21T12:19:40.248Z,26.63
2022-09-21T12:24:47.554Z,25.23
2022-09-21T12:29:54.681Z,28.97
2022-09-21T12:35:01.988Z,26.51
2022-09-21T12:40:08.399Z,28.72
2022-09-21T12:45:18.273Z,26.75
2022-09-21T12:50:26.067Z,25.85
2022-09-21T12:55:45.453Z,26.33
2022-09-21T13:00:56.501Z,24.92
2022-09-21T13:06:30.301Z,26.70
2022-09-21T13:11:35.250Z,26.80
2022-09-21T13:16:40.591Z,25.08
2022-09-21T13:21:45.001Z,25.24
2022-09-21T13:26:54.368Z,27.62
2022-09-21T13:32:00.910Z,24.83
2022-09-21T13:37:34.502Z,24.04
2022-09-21T13:42:48.782Z,24.14
2022-09-21T13:47:55.313Z,22.98
2022-09-21T13:53:00.484Z,24.51
2022-09-21T13:58:05.890Z,23.95
2022-09-21T14:03:23.314Z,25.22
2022-09-21T14:08:31.200Z,26.37
2022-09-21T14:13:36.112Z,25.37
2022-09-21T14:18:40.778Z,27.58
2022-09-21T14:24:20.209Z,27.93
2022-09-21T14:29:27.253Z,26.78
2022-09-21T14:34:36.891Z,27.80
2022-09-21T14:39:44.214Z,26.09
2022-09-21T14:44:49.839Z,28.37
2022-09-21T14:50:14.407Z,26.83
2022-09-21T14:55:21.694Z,27.11
2022-09-21T15:00:27.146Z,28.10
2022-09-21T15:05:36.198Z,25.72
2022-09-21T15:10:57.849Z,24.94
2022-09-21T15:16:11.276Z,26.11
2022-09-21T15:21:24.110Z,25.71
2022-09-21T15:26:30.409Z,25.33
2022-09-21T15:31:34.923Z,24.77
2022-09-21T15:36:42.634Z,25.11
2022-09-21T15:41:49.797Z,25.38
2022-09-21T15:46:57.790Z,25.49
2022-09-21T15:52:06.251Z,27.35
2022-09-21T15:57:25.629Z,26.23
2022-09-21T16:02:34.479Z,25.48
2022-09-21T16:07:39.686Z,27.04
2022-09-21T16:12:43.731Z,24.81
2022-09-21T16:18:01.266Z,27.37
2022-09-21T16:23:07.941Z,28.11
2022-09-21T16:28:31.833Z,30.21
2022-09-21T16:33:42.647Z,29.22
2022-09-21T16:38:48.021Z,29.49
2022-09-21T16:43:52.024Z,29.85
2022-09-21T16:48:55.460Z,30.44
2022-09-21T16:54:00.139Z,30.27
2022-09-21T16:59:10.370Z,30.62
2022-09-21T17:04:13.931Z,31.81
2022-09-21T17:09:29.543Z,31.49
2022-09-21T17:14:35.109Z,31.95
2022-09-21T17:19:39.074Z,32.37
2022-09-21T17:24:52.738Z,33.81
2022-09-21T17:29:56.420Z,35.04
2022-09-21T17:35:02.012Z,36.44
2022-09-21T17:40:10.708Z,37.64
2022-09-21T17:45:21.234Z,38.75
2022-09-21T17:50:28.517Z,38.97
2022-09-21T17:55:34.113Z,39.77
2022-09-21T18:00:54.397Z,40.35
2022-09-21T18:06:07.516Z,40.96
2022-09-21T18:11:42.824Z,41.54
2022-09-21T18:16:56.539Z,42.69
2022-09-21T18:22:03.521Z,43.25
2022-09-21T18:27:10.865Z,43.12
2022-09-21T18:32:28.947Z,43.27
2022-09-21T18:37:37.248Z,43.04
2022-09-21T18:42:48.951Z,43.48
2022-09-21T18:48:21.355Z,43.92
2022-09-21T18:53:28.608Z,44.25
2022-09-21T18:58:34.110Z,44.53
2022-09-21T19:03:38.641Z,44.73
2022-09-21T19:08:45.957Z,44.16
2022-09-21T19:13:56.007Z,44.25
2022-09-21T19:19:12.095Z,45.22
2022-09-21T19:24:21.549Z,44.67
2022-09-21T19:29:38.158Z,45.21
2022-09-21T19:34:41.893Z,45.90
2022-09-21T19:39:45.649Z,45.40
2022-09-21T19:45:01.294Z,46.79
2022-09-21T19:50:17.622Z,45.85
2022-09-21T19:55:40.075Z,45.80
2022-09-21T20:00:45.377Z,46.68
2022-09-21T20:06:02.424Z,46.17
2022-09-21T20:11:10.976Z,46.09
2022-09-21T20:16:27.439Z,45.85
2022-09-21T20:21:37.149Z,47.04
2022-09-21T20:26:40.567Z,46.06
2022-09-21T20:31:45.523Z,46.69
2022-09-21T20:36:48.931Z,46.92
2022-09-21T20:41:52.408Z,47.36
2022-09-21T20:46:57.254Z,46.84
2022-09-21T20:52:01.242Z,47.11
2022-09-21T20:57:05.081Z,47.76
2022-09-21T21:02:10.960Z,46.72
2022-09-21T21:07:14.398Z,47.25
2022-09-21T21:12:17.842Z,47.13
2022-09-21T21:17:22.728Z,48.61
2022-09-21T21:22:26.301Z,47.90
2022-09-21T21:27:29.687Z,47.35
2022-09-21T21:32:34.938Z,47.02
2022-09-21T21:37:40.258Z,47.06
2022-09-21T21:42:43.672Z,47.52
2022-09-21T21:47:48.463Z,47.04
2022-09-21T21:52:51.921Z,46.91
2022-09-21T21:57:56.242Z,47.54
2022-09-21T22:03:02.436Z,47.29
2022-09-21T22:08:06.369Z,47.48
2022-09-21T22:13:09.779Z,47.80
2022-09-21T22:18:15.007Z,48.10
2022-09-21T22:23:18.449Z,48.55
2022-09-21T22:28:21.858Z,47.61
2022-09-21T22:33:31.154Z,47.16
2022-09-21T22:38:41.904Z,46.98
2022-09-21T22:43:46.854Z,47.54
2022-09-21T22:48:51.730Z,47.69
2022-09-21T22:53:55.281Z,46.77
2022-09-21T22:59:00.164Z,48.63
2022-09-21T23:04:07.038Z,48.25
2022-09-21T23:09:19.512Z,47.96
2022-09-21T23:14:23.696Z,48.56
2022-09-21T23:19:28.550Z,49.03
2022-09-21T23:24:31.931Z,48.36
2022-09-21T23:29:35.319Z,47.93
2022-09-21T23:34:40.202Z,48.26
2022-09-21T23:39:43.656Z,48.60
2022-09-21T23:44:47.048Z,49.07
2022-09-21T23:49:51.819Z,48.08
2022-09-21T23:54:55.219Z,48.06
2022-09-21T23:59:58.603Z,47.98
